sensor_id;sensor_type;location;lat;lon;timestamp;P1;durP1;ratioP1;P2;durP2;ratioP2
11827;SDS011;5971;49.646;8.568;2022-07-29T00:01:37;4.38;;;2.33;;
11827;SDS011;5971;49.646;8.568;2022-07-29T00:04:38;4.60;;;2.45;;
11827;SDS011;5971;49.646;8.568;2022-07-29T00:07:40;4.40;;;2.10;;
11827;SDS011;5971;49.646;8.568;2022-07-29T00:10:42;3.92;;;2.13;;
11827;SDS011;5971;49.646;8.568;2022-07-29T00:13:43;5.43;;;2.25;;
11827;SDS011;5971;49.646;8.568;2022-07-29T00:16:51;3.05;;;1.88;;
11827;SDS011;5971;49.646;8.568;2022-07-29T00:19:52;3.80;;;2.60;;
11827;SDS011;5971;49.646;8.568;2022-07-29T00:22:54;5.75;;;2.00;;
11827;SDS011;5971;49.646;8.568;2022-07-29T00:25:55;2.88;;;1.90;;
11827;SDS011;5971;49.646;8.568;2022-07-29T00:28:59;3.95;;;1.92;;
11827;SDS011;5971;49.646;8.568;2022-07-29T00:32:21;3.80;;;2.20;;
11827;SDS011;5971;49.646;8.568;2022-07-29T00:35:22;2.80;;;1.70;;
11827;SDS011;5971;49.646;8.568;2022-07-29T00:38:42;2.72;;;1.88;;
11827;SDS011;5971;49.646;8.568;2022-07-29T00:41:46;3.35;;;1.88;;
11827;SDS011;5971;49.646;8.568;2022-07-29T00:44:47;3.95;;;2.08;;
11827;SDS011;5971;49.646;8.568;2022-07-29T00:47:48;4.00;;;1.73;;
11827;SDS011;5971;49.646;8.568;2022-07-29T00:50:50;3.80;;;1.70;;
11827;SDS011;5971;49.646;8.568;2022-07-29T00:53:52;3.33;;;2.42;;
11827;SDS011;5971;49.646;8.568;2022-07-29T00:56:53;3.00;;;2.03;;
11827;SDS011;5971;49.646;8.568;2022-07-29T00:59:55;4.32;;;2.00;;
11827;SDS011;5971;49.646;8.568;2022-07-29T01:02:57;4.47;;;2.17;;
11827;SDS011;5971;49.646;8.568;2022-07-29T01:05:58;3.67;;;1.92;;
11827;SDS011;5971;49.646;8.568;2022-07-29T01:09:00;2.97;;;1.83;;
11827;SDS011;5971;49.646;8.568;2022-07-29T01:12:02;3.50;;;1.90;;
11827;SDS011;5971;49.646;8.568;2022-07-29T01:15:04;3.08;;;1.85;;
11827;SDS011;5971;49.646;8.568;2022-07-29T01:25:03;4.15;;;1.80;;
11827;SDS011;5971;49.646;8.568;2022-07-29T01:28:08;3.15;;;2.08;;
11827;SDS011;5971;49.646;8.568;2022-07-29T01:31:16;3.13;;;2.00;;
11827;SDS011;5971;49.646;8.568;2022-07-29T01:34:31;4.10;;;1.90;;
11827;SDS011;5971;49.646;8.568;2022-07-29T01:40:40;4.57;;;1.85;;
11827;SDS011;5971;49.646;8.568;2022-07-29T01:43:49;2.75;;;1.92;;
11827;SDS011;5971;49.646;8.568;2022-07-29T01:46:53;5.15;;;2.22;;
11827;SDS011;5971;49.646;8.568;2022-07-29T01:49:56;4.03;;;2.17;;
11827;SDS011;5971;49.646;8.568;2022-07-29T01:53:00;3.65;;;1.95;;
11827;SDS011;5971;49.646;8.568;2022-07-29T01:56:01;4.38;;;1.85;;
11827;SDS011;5971;49.646;8.568;2022-07-29T01:59:04;3.88;;;2.08;;
11827;SDS011;5971;49.646;8.568;2022-07-29T02:02:06;2.80;;;1.75;;
11827;SDS011;5971;49.646;8.568;2022-07-29T02:05:11;3.88;;;1.83;;
11827;SDS011;5971;49.646;8.568;2022-07-29T02:08:13;3.30;;;2.03;;
11827;SDS011;5971;49.646;8.568;2022-07-29T02:11:16;3.47;;;2.25;;
11827;SDS011;5971;49.646;8.568;2022-07-29T02:14:19;5.10;;;2.22;;
11827;SDS011;5971;49.646;8.568;2022-07-29T02:17:22;4.60;;;2.20;;
11827;SDS011;5971;49.646;8.568;2022-07-29T02:20:24;5.13;;;2.22;;
11827;SDS011;5971;49.646;8.568;2022-07-29T02:23:26;3.42;;;2.33;;
11827;SDS011;5971;49.646;8.568;2022-07-29T02:26:28;4.38;;;2.05;;
11827;SDS011;5971;49.646;8.568;2022-07-29T02:29:30;3.20;;;1.90;;
11827;SDS011;5971;49.646;8.568;2022-07-29T02:32:34;4.68;;;2.33;;
11827;SDS011;5971;49.646;8.568;2022-07-29T02:35:35;3.28;;;2.03;;
11827;SDS011;5971;49.646;8.568;2022-07-29T02:38:37;3.35;;;2.10;;
11827;SDS011;5971;49.646;8.568;2022-07-29T02:41:55;3.40;;;1.95;;
11827;SDS011;5971;49.646;8.568;2022-07-29T02:44:58;3.90;;;2.33;;
11827;SDS011;5971;49.646;8.568;2022-07-29T02:48:00;3.45;;;1.95;;
11827;SDS011;5971;49.646;8.568;2022-07-29T02:51:05;3.50;;;2.00;;
11827;SDS011;5971;49.646;8.568;2022-07-29T02:54:07;3.83;;;2.30;;
11827;SDS011;5971;49.646;8.568;2022-07-29T02:57:20;3.60;;;1.85;;
11827;SDS011;5971;49.646;8.568;2022-07-29T03:00:33;3.55;;;1.95;;
11827;SDS011;5971;49.646;8.568;2022-07-29T03:03:37;5.05;;;2.33;;
11827;SDS011;5971;49.646;8.568;2022-07-29T03:06:38;3.55;;;2.20;;
11827;SDS011;5971;49.646;8.568;2022-07-29T03:09:41;3.30;;;1.92;;
11827;SDS011;5971;49.646;8.568;2022-07-29T03:12:43;4.07;;;2.05;;
11827;SDS011;5971;49.646;8.568;2022-07-29T03:15:45;3.67;;;2.05;;
11827;SDS011;5971;49.646;8.568;2022-07-29T03:18:47;4.35;;;2.17;;
11827;SDS011;5971;49.646;8.568;2022-07-29T03:21:48;3.58;;;2.20;;
11827;SDS011;5971;49.646;8.568;2022-07-29T03:24:50;2.97;;;2.05;;
11827;SDS011;5971;49.646;8.568;2022-07-29T03:27:51;3.92;;;1.92;;
11827;SDS011;5971;49.646;8.568;2022-07-29T03:30:53;4.07;;;2.40;;
11827;SDS011;5971;49.646;8.568;2022-07-29T03:33:55;3.65;;;1.95;;
11827;SDS011;5971;49.646;8.568;2022-07-29T03:36:56;4.18;;;2.35;;
11827;SDS011;5971;49.646;8.568;2022-07-29T03:39:58;2.90;;;1.98;;
11827;SDS011;5971;49.646;8.568;2022-07-29T03:42:59;4.40;;;1.77;;
11827;SDS011;5971;49.646;8.568;2022-07-29T03:46:01;3.97;;;2.25;;
11827;SDS011;5971;49.646;8.568;2022-07-29T03:49:03;3.88;;;2.15;;
11827;SDS011;5971;49.646;8.568;2022-07-29T03:52:05;3.75;;;1.98;;
11827;SDS011;5971;49.646;8.568;2022-07-29T03:55:07;3.42;;;2.00;;
11827;SDS011;5971;49.646;8.568;2022-07-29T03:58:09;4.32;;;2.10;;
11827;SDS011;5971;49.646;8.568;2022-07-29T04:01:11;3.20;;;1.85;;
11827;SDS011;5971;49.646;8.568;2022-07-29T04:04:13;5.55;;;1.75;;
11827;SDS011;5971;49.646;8.568;2022-07-29T04:07:15;3.03;;;1.95;;
11827;SDS011;5971;49.646;8.568;2022-07-29T04:10:17;3.10;;;1.92;;
11827;SDS011;5971;49.646;8.568;2022-07-29T04:13:32;3.28;;;1.95;;
11827;SDS011;5971;49.646;8.568;2022-07-29T04:16:33;3.78;;;1.90;;
11827;SDS011;5971;49.646;8.568;2022-07-29T04:19:35;4.40;;;1.67;;
11827;SDS011;5971;49.646;8.568;2022-07-29T04:22:36;3.60;;;1.77;;
11827;SDS011;5971;49.646;8.568;2022-07-29T04:25:38;4.20;;;2.30;;
11827;SDS011;5971;49.646;8.568;2022-07-29T04:28:39;4.25;;;2.10;;
11827;SDS011;5971;49.646;8.568;2022-07-29T04:31:43;3.75;;;1.85;;
11827;SDS011;5971;49.646;8.568;2022-07-29T04:34:44;3.75;;;2.22;;
11827;SDS011;5971;49.646;8.568;2022-07-29T04:37:47;5.70;;;2.30;;
11827;SDS011;5971;49.646;8.568;2022-07-29T04:40:48;2.97;;;1.77;;
11827;SDS011;5971;49.646;8.568;2022-07-29T04:43:50;4.35;;;2.13;;
11827;SDS011;5971;49.646;8.568;2022-07-29T04:46:52;3.10;;;1.90;;
11827;SDS011;5971;49.646;8.568;2022-07-29T04:49:53;2.95;;;2.00;;
11827;SDS011;5971;49.646;8.568;2022-07-29T04:52:54;3.55;;;2.10;;
11827;SDS011;5971;49.646;8.568;2022-07-29T04:55:56;6.93;;;2.22;;
11827;SDS011;5971;49.646;8.568;2022-07-29T04:58:57;5.88;;;2.22;;
11827;SDS011;5971;49.646;8.568;2022-07-29T05:01:58;4.18;;;1.92;;
11827;SDS011;5971;49.646;8.568;2022-07-29T05:05:00;3.15;;;1.98;;
11827;SDS011;5971;49.646;8.568;2022-07-29T05:08:01;3.85;;;2.13;;
11827;SDS011;5971;49.646;8.568;2022-07-29T05:11:03;3.70;;;2.17;;
11827;SDS011;5971;49.646;8.568;2022-07-29T05:14:12;4.22;;;2.55;;
11827;SDS011;5971;49.646;8.568;2022-07-29T05:17:14;3.85;;;2.60;;
11827;SDS011;5971;49.646;8.568;2022-07-29T05:20:15;4.25;;;2.30;;
11827;SDS011;5971;49.646;8.568;2022-07-29T05:23:17;5.75;;;2.25;;
11827;SDS011;5971;49.646;8.568;2022-07-29T05:26:18;3.95;;;2.20;;
11827;SDS011;5971;49.646;8.568;2022-07-29T05:29:19;3.35;;;1.90;;
11827;SDS011;5971;49.646;8.568;2022-07-29T05:32:41;3.78;;;2.22;;
11827;SDS011;5971;49.646;8.568;2022-07-29T05:35:42;3.50;;;2.17;;
11827;SDS011;5971;49.646;8.568;2022-07-29T05:38:44;6.13;;;2.22;;
11827;SDS011;5971;49.646;8.568;2022-07-29T05:41:45;3.50;;;1.92;;
11827;SDS011;5971;49.646;8.568;2022-07-29T05:44:52;3.30;;;2.00;;
11827;SDS011;5971;49.646;8.568;2022-07-29T05:47:54;3.35;;;1.95;;
11827;SDS011;5971;49.646;8.568;2022-07-29T05:50:55;3.45;;;2.20;;
11827;SDS011;5971;49.646;8.568;2022-07-29T05:53:57;3.95;;;2.20;;
11827;SDS011;5971;49.646;8.568;2022-07-29T05:56:58;3.80;;;2.33;;
11827;SDS011;5971;49.646;8.568;2022-07-29T05:59:59;3.65;;;2.20;;
11827;SDS011;5971;49.646;8.568;2022-07-29T06:03:01;4.45;;;2.22;;
11827;SDS011;5971;49.646;8.568;2022-07-29T06:06:03;3.65;;;1.92;;
11827;SDS011;5971;49.646;8.568;2022-07-29T06:09:04;4.35;;;2.10;;
11827;SDS011;5971;49.646;8.568;2022-07-29T06:12:12;3.45;;;2.10;;
11827;SDS011;5971;49.646;8.568;2022-07-29T06:15:14;4.45;;;2.30;;
11827;SDS011;5971;49.646;8.568;2022-07-29T06:18:16;4.15;;;2.35;;
11827;SDS011;5971;49.646;8.568;2022-07-29T06:21:18;3.50;;;2.45;;
11827;SDS011;5971;49.646;8.568;2022-07-29T06:24:19;3.53;;;2.13;;
11827;SDS011;5971;49.646;8.568;2022-07-29T06:27:21;3.50;;;2.28;;
11827;SDS011;5971;49.646;8.568;2022-07-29T06:30:22;3.28;;;2.17;;
11827;SDS011;5971;49.646;8.568;2022-07-29T06:33:24;3.58;;;2.20;;
11827;SDS011;5971;49.646;8.568;2022-07-29T06:36:25;3.17;;;2.20;;
11827;SDS011;5971;49.646;8.568;2022-07-29T06:39:28;5.45;;;2.25;;
11827;SDS011;5971;49.646;8.568;2022-07-29T06:42:29;5.57;;;2.08;;
11827;SDS011;5971;49.646;8.568;2022-07-29T06:45:33;3.17;;;2.10;;
11827;SDS011;5971;49.646;8.568;2022-07-29T06:48:35;4.10;;;2.15;;
11827;SDS011;5971;49.646;8.568;2022-07-29T06:51:39;3.70;;;2.50;;
11827;SDS011;5971;49.646;8.568;2022-07-29T06:54:41;3.70;;;2.25;;
11827;SDS011;5971;49.646;8.568;2022-07-29T06:57:48;4.55;;;2.22;;
11827;SDS011;5971;49.646;8.568;2022-07-29T07:00:51;3.78;;;2.22;;
11827;SDS011;5971;49.646;8.568;2022-07-29T07:03:52;3.45;;;2.50;;
11827;SDS011;5971;49.646;8.568;2022-07-29T07:06:54;3.55;;;2.40;;
11827;SDS011;5971;49.646;8.568;2022-07-29T07:09:56;4.25;;;2.40;;
11827;SDS011;5971;49.646;8.568;2022-07-29T07:12:58;4.70;;;2.55;;
11827;SDS011;5971;49.646;8.568;2022-07-29T07:16:03;3.53;;;2.38;;
11827;SDS011;5971;49.646;8.568;2022-07-29T07:19:05;3.67;;;2.50;;
11827;SDS011;5971;49.646;8.568;2022-07-29T07:22:06;4.78;;;2.55;;
11827;SDS011;5971;49.646;8.568;2022-07-29T07:25:07;3.60;;;2.45;;
11827;SDS011;5971;49.646;8.568;2022-07-29T07:28:09;3.40;;;2.42;;
11827;SDS011;5971;49.646;8.568;2022-07-29T07:31:11;3.90;;;2.45;;
11827;SDS011;5971;49.646;8.568;2022-07-29T07:34:12;3.63;;;2.25;;
11827;SDS011;5971;49.646;8.568;2022-07-29T07:37:15;4.18;;;2.53;;
11827;SDS011;5971;49.646;8.568;2022-07-29T07:40:17;4.07;;;2.60;;
11827;SDS011;5971;49.646;8.568;2022-07-29T07:43:19;4.68;;;2.78;;
11827;SDS011;5971;49.646;8.568;2022-07-29T07:46:20;3.38;;;2.50;;
11827;SDS011;5971;49.646;8.568;2022-07-29T07:49:21;4.05;;;2.80;;
11827;SDS011;5971;49.646;8.568;2022-07-29T07:52:23;3.83;;;2.63;;
11827;SDS011;5971;49.646;8.568;2022-07-29T07:55:25;4.28;;;2.45;;
11827;SDS011;5971;49.646;8.568;2022-07-29T07:58:27;3.58;;;2.63;;
11827;SDS011;5971;49.646;8.568;2022-07-29T08:01:28;4.65;;;2.90;;
11827;SDS011;5971;49.646;8.568;2022-07-29T08:04:48;4.47;;;2.13;;
11827;SDS011;5971;49.646;8.568;2022-07-29T08:07:49;4.60;;;2.50;;
11827;SDS011;5971;49.646;8.568;2022-07-29T08:10:51;4.43;;;2.85;;
11827;SDS011;5971;49.646;8.568;2022-07-29T08:13:57;4.20;;;2.13;;
11827;SDS011;5971;49.646;8.568;2022-07-29T08:16:58;3.75;;;2.22;;
11827;SDS011;5971;49.646;8.568;2022-07-29T08:20:00;5.03;;;2.22;;
11827;SDS011;5971;49.646;8.568;2022-07-29T08:23:02;4.50;;;2.35;;
11827;SDS011;5971;49.646;8.568;2022-07-29T08:26:09;5.57;;;2.38;;
11827;SDS011;5971;49.646;8.568;2022-07-29T08:32:19;4.10;;;2.30;;
11827;SDS011;5971;49.646;8.568;2022-07-29T08:35:41;3.38;;;2.22;;
11827;SDS011;5971;49.646;8.568;2022-07-29T08:38:42;3.85;;;2.65;;
11827;SDS011;5971;49.646;8.568;2022-07-29T08:41:43;3.33;;;2.42;;
11827;SDS011;5971;49.646;8.568;2022-07-29T08:44:57;4.30;;;2.53;;
11827;SDS011;5971;49.646;8.568;2022-07-29T08:47:59;4.88;;;2.67;;
11827;SDS011;5971;49.646;8.568;2022-07-29T08:51:00;3.97;;;2.72;;
11827;SDS011;5971;49.646;8.568;2022-07-29T08:54:04;3.35;;;2.40;;
11827;SDS011;5971;49.646;8.568;2022-07-29T08:57:06;3.60;;;2.42;;
11827;SDS011;5971;49.646;8.568;2022-07-29T09:00:09;4.45;;;2.63;;
11827;SDS011;5971;49.646;8.568;2022-07-29T09:06:14;4.72;;;2.40;;
11827;SDS011;5971;49.646;8.568;2022-07-29T09:09:16;3.88;;;2.78;;
11827;SDS011;5971;49.646;8.568;2022-07-29T09:12:17;4.85;;;2.72;;
11827;SDS011;5971;49.646;8.568;2022-07-29T09:15:29;4.30;;;2.92;;
11827;SDS011;5971;49.646;8.568;2022-07-29T09:21:40;5.47;;;3.00;;
11827;SDS011;5971;49.646;8.568;2022-07-29T09:25:00;3.78;;;2.50;;
11827;SDS011;5971;49.646;8.568;2022-07-29T09:31:09;3.60;;;2.47;;
11827;SDS011;5971;49.646;8.568;2022-07-29T09:34:11;4.85;;;2.90;;
11827;SDS011;5971;49.646;8.568;2022-07-29T09:37:24;4.03;;;2.90;;
11827;SDS011;5971;49.646;8.568;2022-07-29T09:40:27;3.70;;;2.65;;
11827;SDS011;5971;49.646;8.568;2022-07-29T09:43:28;4.85;;;2.80;;
11827;SDS011;5971;49.646;8.568;2022-07-29T09:46:30;3.72;;;2.78;;
11827;SDS011;5971;49.646;8.568;2022-07-29T09:49:35;4.18;;;2.58;;
11827;SDS011;5971;49.646;8.568;2022-07-29T09:52:47;4.07;;;2.72;;
11827;SDS011;5971;49.646;8.568;2022-07-29T09:55:49;4.22;;;3.10;;
11827;SDS011;5971;49.646;8.568;2022-07-29T09:59:08;4.38;;;2.92;;
11827;SDS011;5971;49.646;8.568;2022-07-29T10:02:12;5.28;;;3.20;;
11827;SDS011;5971;49.646;8.568;2022-07-29T10:05:23;4.57;;;3.03;;
11827;SDS011;5971;49.646;8.568;2022-07-29T10:08:25;5.03;;;3.13;;
11827;SDS011;5971;49.646;8.568;2022-07-29T10:11:27;4.57;;;3.15;;
11827;SDS011;5971;49.646;8.568;2022-07-29T10:14:48;3.90;;;2.90;;
11827;SDS011;5971;49.646;8.568;2022-07-29T10:17:50;3.85;;;2.95;;
11827;SDS011;5971;49.646;8.568;2022-07-29T10:20:52;5.78;;;3.08;;
11827;SDS011;5971;49.646;8.568;2022-07-29T10:23:53;5.28;;;3.22;;
11827;SDS011;5971;49.646;8.568;2022-07-29T10:27:00;4.25;;;3.00;;
11827;SDS011;5971;49.646;8.568;2022-07-29T10:30:05;3.72;;;2.90;;
11827;SDS011;5971;49.646;8.568;2022-07-29T10:33:10;5.20;;;3.17;;
11827;SDS011;5971;49.646;8.568;2022-07-29T10:42:34;4.45;;;3.40;;
11827;SDS011;5971;49.646;8.568;2022-07-29T10:45:41;4.63;;;3.10;;
11827;SDS011;5971;49.646;8.568;2022-07-29T10:52:09;4.53;;;3.20;;
11827;SDS011;5971;49.646;8.568;2022-07-29T10:55:30;4.47;;;3.30;;
11827;SDS011;5971;49.646;8.568;2022-07-29T10:58:31;4.88;;;3.05;;
11827;SDS011;5971;49.646;8.568;2022-07-29T11:01:32;4.45;;;3.13;;
11827;SDS011;5971;49.646;8.568;2022-07-29T11:14:59;4.43;;;3.03;;
11827;SDS011;5971;49.646;8.568;2022-07-29T11:18:03;4.85;;;3.28;;
11827;SDS011;5971;49.646;8.568;2022-07-29T11:24:20;4.90;;;2.65;;
11827;SDS011;5971;49.646;8.568;2022-07-29T11:27:32;5.28;;;3.10;;
11827;SDS011;5971;49.646;8.568;2022-07-29T11:30:53;4.30;;;3.03;;
11827;SDS011;5971;49.646;8.568;2022-07-29T11:33:55;4.30;;;3.28;;
11827;SDS011;5971;49.646;8.568;2022-07-29T11:40:08;3.88;;;2.92;;
11827;SDS011;5971;49.646;8.568;2022-07-29T11:43:11;3.80;;;3.08;;
11827;SDS011;5971;49.646;8.568;2022-07-29T11:46:48;4.07;;;3.05;;
11827;SDS011;5971;49.646;8.568;2022-07-29T11:49:50;4.18;;;3.20;;
11827;SDS011;5971;49.646;8.568;2022-07-29T11:52:54;3.75;;;3.00;;
11827;SDS011;5971;49.646;8.568;2022-07-29T11:55:56;3.92;;;2.97;;
11827;SDS011;5971;49.646;8.568;2022-07-29T11:59:06;4.47;;;3.10;;
11827;SDS011;5971;49.646;8.568;2022-07-29T12:02:08;4.68;;;2.63;;
11827;SDS011;5971;49.646;8.568;2022-07-29T12:08:39;3.70;;;2.80;;
11827;SDS011;5971;49.646;8.568;2022-07-29T12:11:42;6.72;;;4.10;;
11827;SDS011;5971;49.646;8.568;2022-07-29T12:14:47;4.40;;;2.92;;
11827;SDS011;5971;49.646;8.568;2022-07-29T12:17:48;4.80;;;3.20;;
11827;SDS011;5971;49.646;8.568;2022-07-29T12:20:57;3.70;;;2.63;;
11827;SDS011;5971;49.646;8.568;2022-07-29T12:23:59;3.40;;;2.50;;
11827;SDS011;5971;49.646;8.568;2022-07-29T12:27:09;3.53;;;2.88;;
11827;SDS011;5971;49.646;8.568;2022-07-29T12:33:20;3.53;;;2.92;;
11827;SDS011;5971;49.646;8.568;2022-07-29T12:42:28;3.63;;;2.50;;
11827;SDS011;5971;49.646;8.568;2022-07-29T12:45:30;3.72;;;2.53;;
11827;SDS011;5971;49.646;8.568;2022-07-29T12:48:36;3.25;;;2.65;;
11827;SDS011;5971;49.646;8.568;2022-07-29T12:51:38;4.07;;;2.65;;
11827;SDS011;5971;49.646;8.568;2022-07-29T12:54:46;3.50;;;2.70;;
11827;SDS011;5971;49.646;8.568;2022-07-29T12:57:48;4.38;;;3.13;;
11827;SDS011;5971;49.646;8.568;2022-07-29T13:00:58;3.70;;;2.55;;
11827;SDS011;5971;49.646;8.568;2022-07-29T13:04:00;4.82;;;2.60;;
11827;SDS011;5971;49.646;8.568;2022-07-29T13:07:06;3.35;;;2.55;;
11827;SDS011;5971;49.646;8.568;2022-07-29T13:10:11;3.58;;;2.78;;
11827;SDS011;5971;49.646;8.568;2022-07-29T13:13:13;3.65;;;2.55;;
11827;SDS011;5971;49.646;8.568;2022-07-29T13:16:15;4.28;;;3.00;;
11827;SDS011;5971;49.646;8.568;2022-07-29T13:19:17;3.22;;;2.60;;
11827;SDS011;5971;49.646;8.568;2022-07-29T13:22:19;3.72;;;2.65;;
11827;SDS011;5971;49.646;8.568;2022-07-29T13:25:31;3.10;;;2.35;;
11827;SDS011;5971;49.646;8.568;2022-07-29T13:28:33;2.90;;;2.17;;
11827;SDS011;5971;49.646;8.568;2022-07-29T13:31:35;3.78;;;2.40;;
11827;SDS011;5971;49.646;8.568;2022-07-29T13:34:36;4.18;;;2.50;;
11827;SDS011;5971;49.646;8.568;2022-07-29T13:37:38;3.55;;;2.50;;
11827;SDS011;5971;49.646;8.568;2022-07-29T13:40:40;3.00;;;2.33;;
11827;SDS011;5971;49.646;8.568;2022-07-29T13:43:42;4.22;;;2.67;;
11827;SDS011;5971;49.646;8.568;2022-07-29T13:46:43;4.15;;;2.70;;
11827;SDS011;5971;49.646;8.568;2022-07-29T13:49:44;4.25;;;2.60;;
11827;SDS011;5971;49.646;8.568;2022-07-29T13:52:46;3.53;;;2.70;;
11827;SDS011;5971;49.646;8.568;2022-07-29T13:55:49;4.85;;;2.80;;
11827;SDS011;5971;49.646;8.568;2022-07-29T13:58:52;3.85;;;2.70;;
11827;SDS011;5971;49.646;8.568;2022-07-29T14:01:53;4.10;;;2.50;;
11827;SDS011;5971;49.646;8.568;2022-07-29T14:04:55;3.35;;;2.78;;
11827;SDS011;5971;49.646;8.568;2022-07-29T14:07:56;4.72;;;2.75;;
11827;SDS011;5971;49.646;8.568;2022-07-29T14:10:58;3.33;;;2.63;;
11827;SDS011;5971;49.646;8.568;2022-07-29T14:13:59;3.53;;;2.42;;
11827;SDS011;5971;49.646;8.568;2022-07-29T14:17:00;3.50;;;2.58;;
11827;SDS011;5971;49.646;8.568;2022-07-29T14:20:04;3.10;;;2.40;;
11827;SDS011;5971;49.646;8.568;2022-07-29T14:23:05;3.15;;;2.53;;
11827;SDS011;5971;49.646;8.568;2022-07-29T14:26:07;4.15;;;2.90;;
11827;SDS011;5971;49.646;8.568;2022-07-29T14:29:13;3.20;;;2.40;;
11827;SDS011;5971;49.646;8.568;2022-07-29T14:32:14;4.63;;;2.78;;
11827;SDS011;5971;49.646;8.568;2022-07-29T14:35:16;3.38;;;2.38;;
11827;SDS011;5971;49.646;8.568;2022-07-29T14:38:17;3.95;;;2.97;;
11827;SDS011;5971;49.646;8.568;2022-07-29T14:41:19;3.55;;;2.75;;
11827;SDS011;5971;49.646;8.568;2022-07-29T14:44:20;4.13;;;2.85;;
11827;SDS011;5971;49.646;8.568;2022-07-29T14:47:21;3.92;;;2.80;;
11827;SDS011;5971;49.646;8.568;2022-07-29T14:50:24;4.65;;;2.40;;
11827;SDS011;5971;49.646;8.568;2022-07-29T14:53:33;4.05;;;2.55;;
11827;SDS011;5971;49.646;8.568;2022-07-29T14:56:34;3.92;;;2.40;;
11827;SDS011;5971;49.646;8.568;2022-07-29T14:59:37;4.18;;;2.65;;
11827;SDS011;5971;49.646;8.568;2022-07-29T15:02:39;4.95;;;2.90;;
11827;SDS011;5971;49.646;8.568;2022-07-29T15:06:00;5.95;;;2.78;;
11827;SDS011;5971;49.646;8.568;2022-07-29T15:09:01;3.15;;;2.45;;
11827;SDS011;5971;49.646;8.568;2022-07-29T15:12:03;3.53;;;2.85;;
11827;SDS011;5971;49.646;8.568;2022-07-29T15:15:05;4.38;;;2.63;;
11827;SDS011;5971;49.646;8.568;2022-07-29T15:18:08;3.35;;;2.63;;
11827;SDS011;5971;49.646;8.568;2022-07-29T15:21:10;3.63;;;2.60;;
11827;SDS011;5971;49.646;8.568;2022-07-29T15:24:11;3.92;;;3.00;;
11827;SDS011;5971;49.646;8.568;2022-07-29T15:27:12;6.13;;;3.15;;
11827;SDS011;5971;49.646;8.568;2022-07-29T15:30:15;4.63;;;2.67;;
11827;SDS011;5971;49.646;8.568;2022-07-29T15:33:33;4.25;;;2.75;;
11827;SDS011;5971;49.646;8.568;2022-07-29T15:36:35;3.22;;;2.53;;
11827;SDS011;5971;49.646;8.568;2022-07-29T15:39:51;3.50;;;2.45;;
11827;SDS011;5971;49.646;8.568;2022-07-29T15:43:02;5.00;;;4.00;;
11827;SDS011;5971;49.646;8.568;2022-07-29T15:46:06;3.53;;;2.40;;
11827;SDS011;5971;49.646;8.568;2022-07-29T15:49:26;4.15;;;2.78;;
11827;SDS011;5971;49.646;8.568;2022-07-29T15:52:49;3.45;;;2.33;;
11827;SDS011;5971;49.646;8.568;2022-07-29T15:55:51;3.92;;;2.80;;
11827;SDS011;5971;49.646;8.568;2022-07-29T15:58:52;4.40;;;3.00;;
11827;SDS011;5971;49.646;8.568;2022-07-29T16:01:53;4.10;;;2.88;;
11827;SDS011;5971;49.646;8.568;2022-07-29T16:04:55;3.50;;;2.45;;
11827;SDS011;5971;49.646;8.568;2022-07-29T16:07:56;4.07;;;2.83;;
11827;SDS011;5971;49.646;8.568;2022-07-29T16:10:59;3.70;;;2.60;;
11827;SDS011;5971;49.646;8.568;2022-07-29T16:14:01;4.38;;;2.83;;
11827;SDS011;5971;49.646;8.568;2022-07-29T16:17:02;5.47;;;3.15;;
11827;SDS011;5971;49.646;8.568;2022-07-29T16:20:04;4.50;;;3.10;;
11827;SDS011;5971;49.646;8.568;2022-07-29T16:23:06;3.60;;;2.67;;
11827;SDS011;5971;49.646;8.568;2022-07-29T16:26:12;3.65;;;2.38;;
11827;SDS011;5971;49.646;8.568;2022-07-29T16:29:13;4.72;;;2.63;;
11827;SDS011;5971;49.646;8.568;2022-07-29T16:32:15;4.00;;;2.75;;
11827;SDS011;5971;49.646;8.568;2022-07-29T16:35:22;3.10;;;2.00;;
11827;SDS011;5971;49.646;8.568;2022-07-29T16:41:47;3.60;;;2.55;;
11827;SDS011;5971;49.646;8.568;2022-07-29T16:44:48;3.40;;;2.35;;
11827;SDS011;5971;49.646;8.568;2022-07-29T16:47:50;3.83;;;2.63;;
11827;SDS011;5971;49.646;8.568;2022-07-29T16:51:00;3.90;;;2.70;;
11827;SDS011;5971;49.646;8.568;2022-07-29T16:54:01;3.60;;;2.50;;
11827;SDS011;5971;49.646;8.568;2022-07-29T16:57:03;4.07;;;3.00;;
11827;SDS011;5971;49.646;8.568;2022-07-29T17:00:04;3.45;;;2.75;;
11827;SDS011;5971;49.646;8.568;2022-07-29T17:03:06;3.63;;;2.70;;
11827;SDS011;5971;49.646;8.568;2022-07-29T17:06:08;3.88;;;2.63;;
11827;SDS011;5971;49.646;8.568;2022-07-29T17:09:09;3.72;;;2.42;;
11827;SDS011;5971;49.646;8.568;2022-07-29T17:12:11;4.93;;;2.70;;
11827;SDS011;5971;49.646;8.568;2022-07-29T17:15:12;4.22;;;2.65;;
11827;SDS011;5971;49.646;8.568;2022-07-29T17:18:14;5.07;;;2.70;;
11827;SDS011;5971;49.646;8.568;2022-07-29T17:21:15;4.88;;;2.83;;
11827;SDS011;5971;49.646;8.568;2022-07-29T17:24:17;4.43;;;2.97;;
11827;SDS011;5971;49.646;8.568;2022-07-29T17:27:18;4.05;;;2.65;;
11827;SDS011;5971;49.646;8.568;2022-07-29T17:30:20;3.75;;;2.50;;
11827;SDS011;5971;49.646;8.568;2022-07-29T17:33:21;4.93;;;2.63;;
11827;SDS011;5971;49.646;8.568;2022-07-29T17:36:23;3.75;;;2.67;;
11827;SDS011;5971;49.646;8.568;2022-07-29T17:39:24;3.95;;;3.00;;
11827;SDS011;5971;49.646;8.568;2022-07-29T17:42:25;3.47;;;2.63;;
11827;SDS011;5971;49.646;8.568;2022-07-29T17:45:27;4.18;;;3.67;;
11827;SDS011;5971;49.646;8.568;2022-07-29T17:48:48;3.97;;;2.83;;
11827;SDS011;5971;49.646;8.568;2022-07-29T17:51:50;4.57;;;2.80;;
11827;SDS011;5971;49.646;8.568;2022-07-29T17:54:51;4.05;;;2.80;;
11827;SDS011;5971;49.646;8.568;2022-07-29T17:57:52;4.47;;;2.85;;
11827;SDS011;5971;49.646;8.568;2022-07-29T18:01:00;3.88;;;2.80;;
11827;SDS011;5971;49.646;8.568;2022-07-29T18:04:01;5.07;;;3.05;;
11827;SDS011;5971;49.646;8.568;2022-07-29T18:07:06;4.32;;;3.10;;
11827;SDS011;5971;49.646;8.568;2022-07-29T18:10:10;5.25;;;3.22;;
11827;SDS011;5971;49.646;8.568;2022-07-29T18:13:12;4.47;;;3.38;;
11827;SDS011;5971;49.646;8.568;2022-07-29T18:16:13;4.38;;;3.03;;
11827;SDS011;5971;49.646;8.568;2022-07-29T18:19:15;4.45;;;3.30;;
11827;SDS011;5971;49.646;8.568;2022-07-29T18:22:17;4.57;;;3.05;;
11827;SDS011;5971;49.646;8.568;2022-07-29T18:25:18;5.85;;;4.07;;
11827;SDS011;5971;49.646;8.568;2022-07-29T18:28:19;6.75;;;3.38;;
11827;SDS011;5971;49.646;8.568;2022-07-29T18:31:21;4.22;;;3.33;;
11827;SDS011;5971;49.646;8.568;2022-07-29T18:34:22;4.30;;;3.05;;
11827;SDS011;5971;49.646;8.568;2022-07-29T18:37:24;4.32;;;3.25;;
11827;SDS011;5971;49.646;8.568;2022-07-29T18:40:45;4.70;;;3.28;;
11827;SDS011;5971;49.646;8.568;2022-07-29T18:43:49;4.22;;;3.03;;
11827;SDS011;5971;49.646;8.568;2022-07-29T18:46:51;5.35;;;3.28;;
11827;SDS011;5971;49.646;8.568;2022-07-29T18:49:54;4.13;;;3.08;;
11827;SDS011;5971;49.646;8.568;2022-07-29T18:52:56;4.45;;;3.08;;
11827;SDS011;5971;49.646;8.568;2022-07-29T18:55:58;4.18;;;3.03;;
11827;SDS011;5971;49.646;8.568;2022-07-29T18:59:02;4.90;;;3.45;;
11827;SDS011;5971;49.646;8.568;2022-07-29T19:02:03;4.80;;;3.35;;
11827;SDS011;5971;49.646;8.568;2022-07-29T19:05:05;4.72;;;3.22;;
11827;SDS011;5971;49.646;8.568;2022-07-29T19:08:07;4.75;;;3.22;;
11827;SDS011;5971;49.646;8.568;2022-07-29T19:11:08;4.45;;;3.33;;
11827;SDS011;5971;49.646;8.568;2022-07-29T19:14:10;4.13;;;3.05;;
11827;SDS011;5971;49.646;8.568;2022-07-29T19:17:11;4.50;;;2.95;;
11827;SDS011;5971;49.646;8.568;2022-07-29T19:20:13;4.70;;;3.33;;
11827;SDS011;5971;49.646;8.568;2022-07-29T19:23:14;5.32;;;3.40;;
11827;SDS011;5971;49.646;8.568;2022-07-29T19:26:16;4.22;;;3.00;;
11827;SDS011;5971;49.646;8.568;2022-07-29T19:29:20;4.43;;;3.08;;
11827;SDS011;5971;49.646;8.568;2022-07-29T19:32:23;4.32;;;3.22;;
11827;SDS011;5971;49.646;8.568;2022-07-29T19:35:25;5.00;;;3.25;;
11827;SDS011;5971;49.646;8.568;2022-07-29T19:38:33;5.63;;;3.42;;
11827;SDS011;5971;49.646;8.568;2022-07-29T19:41:34;5.97;;;3.55;;
11827;SDS011;5971;49.646;8.568;2022-07-29T19:44:36;4.80;;;3.20;;
11827;SDS011;5971;49.646;8.568;2022-07-29T19:47:37;4.80;;;3.30;;